Seabourn Pride — C6FR5 — position and weather

sailwx.info

Track history (hours):
 
Tides and Currents Weather Stations Pressure Air Temp Water Temp Dewpoint Dewpoint Depression Visibility Wind Speed Wind Dir Waves Ship Positions

Seabourn Pride

Operator: Cunard Seabourn

Last reported at 2017-May-27 01:55 UTC. Time now 2017-May-27 02:12 UTC.
Position N 41°04' E 002°14'.

Length 134 m; draft 5.7 m.

Type: Ship. MMSI: 311084000.

Date/timePositionNaut miles runAvg speedWind from/ knotsBaromVisibWave heightAir tempDewpointWater temp
2017-May-27 01:55N 41°04' E 002°14'410.0
2017-May-27 01:30N 40°60' E 002°14'510.3
2017-May-27 01:00N 40°54' E 002°15'510.3
2017-May-27 00:30N 40°49' E 002°15'510.0
2017-May-27 00:00N 40°44' E 002°16'510.2
2017-May-26 23:30N 40°39' E 002°16'510.5
2017-May-26 23:00N 40°34' E 002°16'510.3
2017-May-26 22:30N 40°29' E 002°15'510.1
2017-May-26 22:00N 40°24' E 002°15'510.4
2017-May-26 21:30N 40°19' E 002°16'510.2
2017-May-26 21:00N 40°14' E 002°16'510.2
2017-May-26 20:30N 40°08' E 002°16'510.8
2017-May-26 20:00N 40°03' E 002°16'611.0
2017-May-26 19:30N 39°58' E 002°16'611.0
2017-May-26 19:00N 39°52' E 002°16'510.9
2017-May-26 18:30N 39°47' E 002°16'510.9
2017-May-26 18:00N 39°41' E 002°16'611.1
2017-May-26 17:28N 39°35' E 002°17'510.6
2017-May-26 16:59N 39°31' E 002°21'511.1
2017-May-26 16:30N 39°28' E 002°26'510.0
2017-May-26 16:00N 39°26' E 002°32'510.5
2017-May-26 15:30N 39°31' E 002°36'3 5.3
2017-May-26 14:58N 39°33' E 002°38'0 0.0
2017-May-26 13:58N 39°33' E 002°38'0 0.0
2017-May-26 13:28N 39°33' E 002°38'0 0.0
2017-May-26 12:58N 39°33' E 002°38'0 0.0
2017-May-26 12:28N 39°33' E 002°38'0 0.0
2017-May-26 12:00N 39°33' E 002°38'0 0.0
2017-May-26 11:30N 39°33' E 002°38'0 0.0
2017-May-26 11:00N 39°33' E 002°38'0 0.0
2017-May-26 10:30N 39°33' E 002°38'0 0.0
2017-May-26 10:00N 39°33' E 002°38'0 0.0
2017-May-26 09:30N 39°33' E 002°38'0 0.0
2017-May-26 09:00N 39°33' E 002°38'0 0.0
2017-May-26 08:30N 39°33' E 002°38'0 0.0
2017-May-26 08:00N 39°33' E 002°38'0 0.0
2017-May-26 07:30N 39°33' E 002°38'0 0.0
2017-May-26 07:00N 39°33' E 002°38'0 0.0
2017-May-26 06:30N 39°33' E 002°38'0 0.0
2017-May-26 06:00N 39°33' E 002°38'0 0.0
2017-May-26 05:30N 39°33' E 002°38'1 2.5
2017-May-26 05:00N 39°32' E 002°39'3 7.0
2017-May-26 04:30N 39°29' E 002°40'3 6.7
2017-May-26 04:00N 39°26' E 002°41'3 6.4
2017-May-26 03:30N 39°22' E 002°42'3 6.7
2017-May-26 03:00N 39°19' E 002°44'4 7.5
2017-May-26 02:30N 39°16' E 002°46'4 7.7
2017-May-26 02:00N 39°13' E 002°48'4 7.7
2017-May-26 01:30N 39°09' E 002°51'4 7.3
2017-May-26 01:00N 39°06' E 002°53'4 7.0
2017-May-26 00:30N 39°05' E 002°57'4 7.1
2017-May-26 00:00N 39°05' E 003°02'4 7.6
2017-May-25 23:30N 39°07' E 003°06'4 7.6
2017-May-25 23:00N 39°08' E 003°11'4 7.6
2017-May-25 22:30N 39°10' E 003°16'4 7.5
2017-May-25 22:00N 39°11' E 003°20'4 7.4
2017-May-25 21:30N 39°12' E 003°25'4 7.2
2017-May-25 21:00N 39°13' E 003°29'4 7.4
2017-May-25 20:30N 39°15' E 003°33'4 7.4
2017-May-25 20:00N 39°16' E 003°38'4 7.5
2017-May-25 19:27N 39°17' E 003°43'4 7.9
2017-May-25 19:00N 39°19' E 003°47'56 8.3
2017-May-25 12:14N 39°38' E 004°56'2 9.4
2017-May-25 11:59N 39°39' E 004°59'7 9.2
2017-May-25 11:13N 39°41' E 005°07'2 8.9
2017-May-25 10:59N 39°42' E 005°10'5 9.0
2017-May-25 10:27N 39°43' E 005°16'20 9.5
2017-May-25 08:23N 39°50' E 005°40'510.8
2017-May-25 07:54N 39°52' E 005°46'410.8
2017-May-25 07:29N 39°53' E 005°52'610.6
2017-May-25 06:57N 39°55' E 005°59'4 7.5
2017-May-25 06:26N 39°57' E 006°03'510.7
2017-May-25 05:58N 39°58' E 006°09'4 7.8
2017-May-25 05:27N 39°60' E 006°14'4 7.6
2017-May-25 04:52N 40°01' E 006°20'3 7.6
2017-May-25 04:30N 40°02' E 006°23'4 7.5
2017-May-25 03:58N 40°03' E 006°28'3 7.4
2017-May-25 03:30N 40°05' E 006°32'4 7.5
2017-May-25 02:55N 40°06' E 006°38'3 7.5
2017-May-25 02:29N 40°07' E 006°42'4 7.4
2017-May-25 01:56N 40°09' E 006°47'3 7.3
2017-May-25 01:30N 40°10' E 006°51'4 7.6
2017-May-25 01:01N 40°11' E 006°55'4 7.6
2017-May-25 00:27N 40°12' E 007°00'3 7.6
2017-May-25 00:00N 40°14' E 007°05'4 7.6
2017-May-24 23:25N 40°15' E 007°10'5 7.6
2017-May-24 22:45N 40°17' E 007°16'3 7.5
2017-May-24 22:17N 40°18' E 007°20'3 7.4
2017-May-24 21:56N 40°19' E 007°24'4 7.3
2017-May-24 21:25N 40°20' E 007°28'3 7.2
2017-May-24 20:56N 40°22' E 007°33'3 7.2
2017-May-24 20:29N 40°23' E 007°37'4 7.2
2017-May-24 19:54N 40°24' E 007°42'3 7.3
2017-May-24 19:30N 40°25' E 007°46'4 7.2
2017-May-24 18:57N 40°26' E 007°50'4 7.3
2017-May-24 18:28N 40°28' E 007°55'3 7.6
2017-May-24 18:00N 40°29' E 007°59'4 7.5
2017-May-24 17:30N 40°30' E 008°04'4 7.6
2017-May-24 16:56N 40°31' E 008°09'4 8.0
2017-May-24 16:23N 40°32' E 008°15'3 7.1
2017-May-24 16:00N 40°34' E 008°17'0 0.1
2017-May-24 10:57N 40°34' E 008°18'26 2.5
2017-May-24 00:47N 40°58' E 008°05'2 8.8
2017-May-24 00:30N 41°01' E 008°06'5 8.8
2017-May-23 23:58N 41°05' E 008°09'4 8.9
2017-May-23 23:30N 41°08' E 008°12'58 3.2
2017-May-23 05:35N 41°36' E 009°19'2 7.6
2017-May-23 05:21N 41°36' E 009°21'1 2.6
2017-May-23 04:56N 41°37' E 009°23'2 4.9
2017-May-23 04:26N 41°38' E 009°26'811.2
2017-May-23 03:43N 41°44' E 009°32'913.2
2017-May-23 03:03N 41°52' E 009°37'413.0
2017-May-23 02:45N 41°56' E 009°38'411.8
2017-May-23 02:26N 41°60' E 009°39'612.3
2017-May-23 01:59N 42°05' E 009°41'3410.7
2017-May-22 22:46N 42°39' E 009°42'611.5
2017-May-22 22:14N 42°45' E 009°40'311.5
2017-May-22 22:00N 42°48' E 009°40'611.3
2017-May-22 21:30N 42°53' E 009°38'611.1
2017-May-22 21:00N 42°59' E 009°36'611.0
2017-May-22 20:30N 43°04' E 009°36'611.2
2017-May-22 19:58N 43°10' E 009°38'511.2
2017-May-22 19:29N 43°15' E 009°40'511.1
2017-May-22 19:00N 43°21' E 009°41'510.9
2017-May-22 18:30N 43°26' E 009°43'611.2
2017-May-22 18:00N 43°31' E 009°45'611.3
2017-May-22 17:30N 43°37' E 009°46'611.4
2017-May-22 17:00N 43°42' E 009°48'611.4
2017-May-22 16:30N 43°48' E 009°49'611.4
2017-May-22 16:00N 43°54' E 009°51'611.6
2017-May-22 15:30N 43°59' E 009°52'4 7.7
2017-May-22 15:01N 44°03' E 009°51'0 0.1
2017-May-22 14:00N 44°03' E 009°51'0 0.0
2017-May-22 13:30N 44°03' E 009°51'0 0.0
2017-May-22 13:00N 44°03' E 009°51'0 0.0
2017-May-22 12:29N 44°03' E 009°51'0 0.1
2017-May-22 11:59N 44°03' E 009°51'0 0.0
2017-May-22 11:29N 44°03' E 009°51'0 0.0
2017-May-22 10:59N 44°03' E 009°51'0 0.0
2017-May-22 10:29N 44°03' E 009°51'0 0.0
2017-May-22 09:59N 44°03' E 009°51'0 0.0
2017-May-22 09:28N 44°03' E 009°51'0 0.0
2017-May-22 08:58N 44°03' E 009°51'0 0.0
2017-May-22 08:24N 44°03' E 009°51'0 0.0
2017-May-22 08:00N 44°03' E 009°51'0 0.1
2017-May-22 07:24N 44°03' E 009°51'0 0.0
2017-May-22 07:00N 44°03' E 009°51'0 0.0
2017-May-22 06:29N 44°03' E 009°51'0 0.0
2017-May-22 05:59N 44°03' E 009°51'0 0.0
2017-May-22 05:29N 44°03' E 009°51'1 1.1
2017-May-22 05:00N 44°03' E 009°52'3 6.5
2017-May-22 04:30N 44°01' E 009°55'3 6.6
2017-May-22 04:00N 43°58' E 009°56'4 7.2
2017-May-22 03:30N 43°54' E 009°54'4 7.9
2017-May-22 03:00N 43°51' E 009°52'4 7.6
2017-May-22 02:30N 43°47' E 009°51'4 7.6
2017-May-22 02:00N 43°44' E 009°49'4 7.5
2017-May-22 01:30N 43°40' E 009°48'4 7.4
2017-May-22 01:00N 43°36' E 009°49'4 7.8
2017-May-22 00:30N 43°34' E 009°53'4 7.8
2017-May-22 00:00N 43°31' E 009°57'4 7.6
2017-May-21 23:30N 43°29' E 010°01'4 7.6
2017-May-21 23:00N 43°25' E 010°03'4 7.5
2017-May-21 22:30N 43°22' E 010°05'4 7.5
2017-May-21 22:00N 43°18' E 010°07'4 7.6
2017-May-21 21:30N 43°15' E 010°09'3 6.1
2017-May-21 21:00N 43°12' E 010°11'3 5.1
2017-May-21 20:30N 43°14' E 010°09'3 5.8
2017-May-21 20:00N 43°16' E 010°06'3 5.0
2017-May-21 19:30N 43°14' E 010°04'3 6.2
2017-May-21 19:00N 43°12' E 010°08'3 5.9
2017-May-21 18:30N 43°11' E 010°11'3 6.0
2017-May-21 18:00N 43°08' E 010°13'3 6.0
2017-May-21 17:30N 43°05' E 010°14'4 7.5
2017-May-21 17:00N 43°01' E 010°16'4 7.4
2017-May-21 16:30N 42°58' E 010°18'4 7.3
2017-May-21 16:00N 42°54' E 010°19'4 7.5
2017-May-21 15:31N 42°51' E 010°21'2 4.5
2017-May-21 15:00N 42°49' E 010°20'0 0.0
2017-May-21 14:00N 42°49' E 010°20'0 0.0
2017-May-21 13:30N 42°49' E 010°20'0 0.0
2017-May-21 13:00N 42°49' E 010°20'0 0.0
2017-May-21 12:30N 42°49' E 010°20'0 0.0
2017-May-21 12:00N 42°49' E 010°20'0 0.0
2017-May-21 11:09N 42°49' E 010°20'0 0.0
2017-May-21 10:57N 42°49' E 010°20'0 0.0
2017-May-21 10:27N 42°49' E 010°20'0 0.0
2017-May-21 09:56N 42°49' E 010°20'0 0.0
2017-May-21 09:28N 42°49' E 010°20'0 0.0
2017-May-21 08:52N 42°49' E 010°20'0 0.0
2017-May-21 08:27N 42°49' E 010°20'0 0.0
2017-May-21 08:00N 42°49' E 010°20'0 0.0
2017-May-21 07:30N 42°49' E 010°20'0 0.0
2017-May-21 06:54N 42°49' E 010°20'0 0.0
2017-May-21 06:27N 42°49' E 010°20'0 0.0
2017-May-21 06:00N 42°49' E 010°20'0 0.0
2017-May-21 05:30N 42°49' E 010°20'1 1.3
2017-May-21 05:00N 42°49' E 010°20'4 7.3
2017-May-21 04:30N 42°52' E 010°21'3 5.7
2017-May-21 04:00N 42°55' E 010°24'5 7.2
2017-May-21 03:23N 42°53' E 010°29'20 0.7
2017-May-19 20:11N 42°37' E 010°46'1 7.6
2017-May-19 20:00N 42°38' E 010°45'4 7.7
2017-May-19 19:30N 42°40' E 010°41'4 7.9
2017-May-19 19:01N 42°43' E 010°38'4 8.2
2017-May-19 18:31N 42°46' E 010°34'10 7.9
2017-May-19 17:14N 42°54' E 010°26'2 7.4
2017-May-19 16:54N 42°54' E 010°22'4 8.2
2017-May-19 16:28N 42°51' E 010°21'2 0.5
2017-May-19 12:03N 42°49' E 010°20'0 0.0
2017-May-19 12:00N 42°49' E 010°20'0 0.0
2017-May-19 05:45N 42°49' E 010°20'0 1.1
2017-May-19 05:29N 42°49' E 010°20'4 7.4
2017-May-19 05:00N 42°52' E 010°21'611.4
2017-May-19 04:30N 42°56' E 010°16'612.3
2017-May-19 04:00N 43°01' E 010°10'612.7
2017-May-19 03:30N 43°06' E 010°05'612.6
2017-May-19 03:00N 43°11' E 009°59'612.7
2017-May-19 02:30N 43°16' E 009°53'612.5
2017-May-19 02:00N 43°20' E 009°48'4 8.2
2017-May-19 01:30N 43°24' E 009°45'510.3
2017-May-19 01:00N 43°29' E 009°43'510.4
2017-May-19 00:30N 43°34' E 009°40'510.7
2017-May-19 00:00N 43°39' E 009°38'510.9
2017-May-18 23:30N 43°44' E 009°35'510.8
2017-May-18 23:00N 43°49' E 009°32'510.7
2017-May-18 22:30N 43°54' E 009°30'611.1
2017-May-18 22:00N 43°59' E 009°27'611.1
2017-May-18 21:30N 44°04' E 009°23'611.2
2017-May-18 21:00N 44°09' E 009°20'611.3
2017-May-18 20:30N 44°14' E 009°17'5 9.9
2017-May-18 20:00N 44°18' E 009°14'0 0.6
2017-May-18 19:26N 44°19' E 009°14'0 0.0
2017-May-18 18:59N 44°19' E 009°14'0 0.1
2017-May-18 18:29N 44°19' E 009°14'0 0.1
2017-May-18 17:56N 44°19' E 009°14'0 0.0
2017-May-18 17:29N 44°19' E 009°14'0 0.0
2017-May-18 16:53N 44°19' E 009°14'0 0.0
2017-May-18 16:29N 44°19' E 009°14'0 0.0
2017-May-18 15:59N 44°19' E 009°14'0 0.0
2017-May-18 15:23N 44°19' E 009°14'0 0.0
2017-May-18 14:56N 44°19' E 009°14'0 0.0
2017-May-18 13:59N 44°19' E 009°14'0 0.0
2017-May-18 13:05N 44°19' E 009°14'0 0.0
2017-May-18 12:50N 44°19' E 009°14'0 0.1
2017-May-18 12:26N 44°19' E 009°14'0 0.0
2017-May-18 11:53N 44°19' E 009°14'0 0.1
2017-May-18 11:20N 44°19' E 009°14'0 0.1
2017-May-18 10:59N 44°19' E 009°14'0 0.0
2017-May-18 10:17N 44°19' E 009°14'0 0.1
2017-May-18 09:59N 44°19' E 009°14'0 0.0
2017-May-18 09:29N 44°19' E 009°14'0 0.0
2017-May-18 08:59N 44°19' E 009°14'0 0.0
2017-May-18 08:14N 44°19' E 009°14'0 0.0
2017-May-18 07:59N 44°19' E 009°14'0 0.0
2017-May-18 07:20N 44°19' E 009°14'0 0.1
2017-May-18 06:43N 44°19' E 009°14'0 0.2
2017-May-18 06:30N 44°19' E 009°14'3 5.6
2017-May-18 05:58N 44°17' E 009°17'3 6.4
2017-May-18 05:30N 44°14' E 009°16'5 9.4
2017-May-18 05:00N 44°12' E 009°10'510.1
2017-May-18 04:30N 44°09' E 009°04'611.9
2017-May-18 04:00N 44°07' E 008°57'611.5
2017-May-18 03:30N 44°05' E 008°49'510.5
2017-May-18 03:00N 44°03' E 008°43'4 8.7
2017-May-18 02:30N 44°01' E 008°37'4 7.8
2017-May-18 02:00N 43°59' E 008°32'3 6.2
2017-May-18 01:29N 43°58' E 008°28'4 7.6
2017-May-18 01:00N 43°56' E 008°24'4 7.3
2017-May-18 00:29N 43°54' E 008°19'3 7.1
2017-May-18 00:00N 43°53' E 008°14'4 7.1
2017-May-17 23:30N 43°51' E 008°10'4 7.5
2017-May-17 23:00N 43°50' E 008°05'  
Track history (hours):
 
Tides and Currents Weather Stations Pressure Air Temp Water Temp Dewpoint Dewpoint Depression Visibility Wind Speed Wind Dir Waves Ship Positions

Seabourn Pride

Operator: Cunard Seabourn

Last reported at 2017-May-27 01:55 UTC. Time now 2017-May-27 02:12 UTC.
Position N 41°04' E 002°14'.

Length 134 m; draft 5.7 m.

Type: Ship. MMSI: 311084000.

Date/timePositionNaut miles runAvg speedWind from/ knotsBaromVisibWave heightAir tempDewpointWater temp
2017-May-27 01:55N 41°04' E 002°14'410.0
2017-May-27 01:30N 40°60' E 002°14'510.3
2017-May-27 01:00N 40°54' E 002°15'510.3
2017-May-27 00:30N 40°49' E 002°15'510.0
2017-May-27 00:00N 40°44' E 002°16'510.2
2017-May-26 23:30N 40°39' E 002°16'510.5
2017-May-26 23:00N 40°34' E 002°16'510.3
2017-May-26 22:30N 40°29' E 002°15'510.1
2017-May-26 22:00N 40°24' E 002°15'510.4
2017-May-26 21:30N 40°19' E 002°16'510.2
2017-May-26 21:00N 40°14' E 002°16'510.2
2017-May-26 20:30N 40°08' E 002°16'510.8
2017-May-26 20:00N 40°03' E 002°16'611.0
2017-May-26 19:30N 39°58' E 002°16'611.0
2017-May-26 19:00N 39°52' E 002°16'510.9
2017-May-26 18:30N 39°47' E 002°16'510.9
2017-May-26 18:00N 39°41' E 002°16'611.1
2017-May-26 17:28N 39°35' E 002°17'510.6
2017-May-26 16:59N 39°31' E 002°21'511.1
2017-May-26 16:30N 39°28' E 002°26'510.0
2017-May-26 16:00N 39°26' E 002°32'510.5
2017-May-26 15:30N 39°31' E 002°36'3 5.3
2017-May-26 14:58N 39°33' E 002°38'0 0.0
2017-May-26 13:58N 39°33' E 002°38'0 0.0
2017-May-26 13:28N 39°33' E 002°38'0 0.0
2017-May-26 12:58N 39°33' E 002°38'0 0.0
2017-May-26 12:28N 39°33' E 002°38'0 0.0
2017-May-26 12:00N 39°33' E 002°38'0 0.0
2017-May-26 11:30N 39°33' E 002°38'0 0.0
2017-May-26 11:00N 39°33' E 002°38'0 0.0
2017-May-26 10:30N 39°33' E 002°38'0 0.0
2017-May-26 10:00N 39°33' E 002°38'0 0.0
2017-May-26 09:30N 39°33' E 002°38'0 0.0
2017-May-26 09:00N 39°33' E 002°38'0 0.0
2017-May-26 08:30N 39°33' E 002°38'0 0.0
2017-May-26 08:00N 39°33' E 002°38'0 0.0
2017-May-26 07:30N 39°33' E 002°38'0 0.0
2017-May-26 07:00N 39°33' E 002°38'0 0.0
2017-May-26 06:30N 39°33' E 002°38'0 0.0
2017-May-26 06:00N 39°33' E 002°38'0 0.0
2017-May-26 05:30N 39°33' E 002°38'1 2.5
2017-May-26 05:00N 39°32' E 002°39'3 7.0
2017-May-26 04:30N 39°29' E 002°40'3 6.7
2017-May-26 04:00N 39°26' E 002°41'3 6.4
2017-May-26 03:30N 39°22' E 002°42'3 6.7
2017-May-26 03:00N 39°19' E 002°44'4 7.5
2017-May-26 02:30N 39°16' E 002°46'4 7.7
2017-May-26 02:00N 39°13' E 002°48'4 7.7
2017-May-26 01:30N 39°09' E 002°51'4 7.3
2017-May-26 01:00N 39°06' E 002°53'4 7.0
2017-May-26 00:30N 39°05' E 002°57'4 7.1
2017-May-26 00:00N 39°05' E 003°02'4 7.6
2017-May-25 23:30N 39°07' E 003°06'4 7.6
2017-May-25 23:00N 39°08' E 003°11'4 7.6
2017-May-25 22:30N 39°10' E 003°16'4 7.5
2017-May-25 22:00N 39°11' E 003°20'4 7.4
2017-May-25 21:30N 39°12' E 003°25'4 7.2
2017-May-25 21:00N 39°13' E 003°29'4 7.4
2017-May-25 20:30N 39°15' E 003°33'4 7.4
2017-May-25 20:00N 39°16' E 003°38'4 7.5
2017-May-25 19:27N 39°17' E 003°43'4 7.9
2017-May-25 19:00N 39°19' E 003°47'56 8.3
2017-May-25 12:14N 39°38' E 004°56'2 9.4
2017-May-25 11:59N 39°39' E 004°59'7 9.2
2017-May-25 11:13N 39°41' E 005°07'2 8.9
2017-May-25 10:59N 39°42' E 005°10'5 9.0
2017-May-25 10:27N 39°43' E 005°16'20 9.5
2017-May-25 08:23N 39°50' E 005°40'510.8
2017-May-25 07:54N 39°52' E 005°46'410.8
2017-May-25 07:29N 39°53' E 005°52'610.6
2017-May-25 06:57N 39°55' E 005°59'4 7.5
2017-May-25 06:26N 39°57' E 006°03'510.7
2017-May-25 05:58N 39°58' E 006°09'4 7.8
2017-May-25 05:27N 39°60' E 006°14'4 7.6
2017-May-25 04:52N 40°01' E 006°20'3 7.6
2017-May-25 04:30N 40°02' E 006°23'4 7.5
2017-May-25 03:58N 40°03' E 006°28'3 7.4
2017-May-25 03:30N 40°05' E 006°32'4 7.5
2017-May-25 02:55N 40°06' E 006°38'3 7.5
2017-May-25 02:29N 40°07' E 006°42'4 7.4
2017-May-25 01:56N 40°09' E 006°47'3 7.3
2017-May-25 01:30N 40°10' E 006°51'4 7.6
2017-May-25 01:01N 40°11' E 006°55'4 7.6
2017-May-25 00:27N 40°12' E 007°00'3 7.6
2017-May-25 00:00N 40°14' E 007°05'4 7.6
2017-May-24 23:25N 40°15' E 007°10'5 7.6
2017-May-24 22:45N 40°17' E 007°16'3 7.5
2017-May-24 22:17N 40°18' E 007°20'3 7.4
2017-May-24 21:56N 40°19' E 007°24'4 7.3
2017-May-24 21:25N 40°20' E 007°28'3 7.2
2017-May-24 20:56N 40°22' E 007°33'3 7.2
2017-May-24 20:29N 40°23' E 007°37'4 7.2
2017-May-24 19:54N 40°24' E 007°42'3 7.3
2017-May-24 19:30N 40°25' E 007°46'4 7.2
2017-May-24 18:57N 40°26' E 007°50'4 7.3
2017-May-24 18:28N 40°28' E 007°55'3 7.6
2017-May-24 18:00N 40°29' E 007°59'4 7.5
2017-May-24 17:30N 40°30' E 008°04'4 7.6
2017-May-24 16:56N 40°31' E 008°09'4 8.0
2017-May-24 16:23N 40°32' E 008°15'3 7.1
2017-May-24 16:00N 40°34' E 008°17'0 0.1
2017-May-24 10:57N 40°34' E 008°18'26 2.5
2017-May-24 00:47N 40°58' E 008°05'2 8.8
2017-May-24 00:30N 41°01' E 008°06'5 8.8
2017-May-23 23:58N 41°05' E 008°09'4 8.9
2017-May-23 23:30N 41°08' E 008°12'58 3.2
2017-May-23 05:35N 41°36' E 009°19'2 7.6
2017-May-23 05:21N 41°36' E 009°21'1 2.6
2017-May-23 04:56N 41°37' E 009°23'2 4.9
2017-May-23 04:26N 41°38' E 009°26'811.2
2017-May-23 03:43N 41°44' E 009°32'913.2
2017-May-23 03:03N 41°52' E 009°37'413.0
2017-May-23 02:45N 41°56' E 009°38'411.8
2017-May-23 02:26N 41°60' E 009°39'612.3
2017-May-23 01:59N 42°05' E 009°41'3410.7
2017-May-22 22:46N 42°39' E 009°42'611.5
2017-May-22 22:14N 42°45' E 009°40'311.5
2017-May-22 22:00N 42°48' E 009°40'611.3
2017-May-22 21:30N 42°53' E 009°38'611.1
2017-May-22 21:00N 42°59' E 009°36'611.0
2017-May-22 20:30N 43°04' E 009°36'611.2
2017-May-22 19:58N 43°10' E 009°38'511.2
2017-May-22 19:29N 43°15' E 009°40'511.1
2017-May-22 19:00N 43°21' E 009°41'510.9
2017-May-22 18:30N 43°26' E 009°43'611.2
2017-May-22 18:00N 43°31' E 009°45'611.3
2017-May-22 17:30N 43°37' E 009°46'611.4
2017-May-22 17:00N 43°42' E 009°48'611.4
2017-May-22 16:30N 43°48' E 009°49'611.4
2017-May-22 16:00N 43°54' E 009°51'611.6
2017-May-22 15:30N 43°59' E 009°52'4 7.7
2017-May-22 15:01N 44°03' E 009°51'0 0.1
2017-May-22 14:00N 44°03' E 009°51'0 0.0
2017-May-22 13:30N 44°03' E 009°51'0 0.0
2017-May-22 13:00N 44°03' E 009°51'0 0.0
2017-May-22 12:29N 44°03' E 009°51'0 0.1
2017-May-22 11:59N 44°03' E 009°51'0 0.0
2017-May-22 11:29N 44°03' E 009°51'0 0.0
2017-May-22 10:59N 44°03' E 009°51'0 0.0
2017-May-22 10:29N 44°03' E 009°51'0 0.0
2017-May-22 09:59N 44°03' E 009°51'0 0.0
2017-May-22 09:28N 44°03' E 009°51'0 0.0
2017-May-22 08:58N 44°03' E 009°51'0 0.0
2017-May-22 08:24N 44°03' E 009°51'0 0.0
2017-May-22 08:00N 44°03' E 009°51'0 0.1
2017-May-22 07:24N 44°03' E 009°51'0 0.0
2017-May-22 07:00N 44°03' E 009°51'0 0.0
2017-May-22 06:29N 44°03' E 009°51'0 0.0
2017-May-22 05:59N 44°03' E 009°51'0 0.0
2017-May-22 05:29N 44°03' E 009°51'1 1.1
2017-May-22 05:00N 44°03' E 009°52'3 6.5
2017-May-22 04:30N 44°01' E 009°55'3 6.6
2017-May-22 04:00N 43°58' E 009°56'4 7.2
2017-May-22 03:30N 43°54' E 009°54'4 7.9
2017-May-22 03:00N 43°51' E 009°52'4 7.6
2017-May-22 02:30N 43°47' E 009°51'4 7.6
2017-May-22 02:00N 43°44' E 009°49'4 7.5
2017-May-22 01:30N 43°40' E 009°48'4 7.4
2017-May-22 01:00N 43°36' E 009°49'4 7.8
2017-May-22 00:30N 43°34' E 009°53'4 7.8
2017-May-22 00:00N 43°31' E 009°57'4 7.6
2017-May-21 23:30N 43°29' E 010°01'4 7.6
2017-May-21 23:00N 43°25' E 010°03'4 7.5
2017-May-21 22:30N 43°22' E 010°05'4 7.5
2017-May-21 22:00N 43°18' E 010°07'4 7.6
2017-May-21 21:30N 43°15' E 010°09'3 6.1
2017-May-21 21:00N 43°12' E 010°11'3 5.1
2017-May-21 20:30N 43°14' E 010°09'3 5.8
2017-May-21 20:00N 43°16' E 010°06'3 5.0
2017-May-21 19:30N 43°14' E 010°04'3 6.2
2017-May-21 19:00N 43°12' E 010°08'3 5.9
2017-May-21 18:30N 43°11' E 010°11'3 6.0
2017-May-21 18:00N 43°08' E 010°13'3 6.0
2017-May-21 17:30N 43°05' E 010°14'4 7.5
2017-May-21 17:00N 43°01' E 010°16'4 7.4
2017-May-21 16:30N 42°58' E 010°18'4 7.3
2017-May-21 16:00N 42°54' E 010°19'4 7.5
2017-May-21 15:31N 42°51' E 010°21'2 4.5
2017-May-21 15:00N 42°49' E 010°20'0 0.0
2017-May-21 14:00N 42°49' E 010°20'0 0.0
2017-May-21 13:30N 42°49' E 010°20'0 0.0
2017-May-21 13:00N 42°49' E 010°20'0 0.0
2017-May-21 12:30N 42°49' E 010°20'0 0.0
2017-May-21 12:00N 42°49' E 010°20'0 0.0
2017-May-21 11:09N 42°49' E 010°20'0 0.0
2017-May-21 10:57N 42°49' E 010°20'0 0.0
2017-May-21 10:27N 42°49' E 010°20'0 0.0
2017-May-21 09:56N 42°49' E 010°20'0 0.0
2017-May-21 09:28N 42°49' E 010°20'0 0.0
2017-May-21 08:52N 42°49' E 010°20'0 0.0
2017-May-21 08:27N 42°49' E 010°20'0 0.0
2017-May-21 08:00N 42°49' E 010°20'0 0.0
2017-May-21 07:30N 42°49' E 010°20'0 0.0
2017-May-21 06:54N 42°49' E 010°20'0 0.0
2017-May-21 06:27N 42°49' E 010°20'0 0.0
2017-May-21 06:00N 42°49' E 010°20'0 0.0
2017-May-21 05:30N 42°49' E 010°20'1 1.3
2017-May-21 05:00N 42°49' E 010°20'4 7.3
2017-May-21 04:30N 42°52' E 010°21'3 5.7
2017-May-21 04:00N 42°55' E 010°24'5 7.2
2017-May-21 03:23N 42°53' E 010°29'20 0.7
2017-May-19 20:11N 42°37' E 010°46'1 7.6
2017-May-19 20:00N 42°38' E 010°45'4 7.7
2017-May-19 19:30N 42°40' E 010°41'4 7.9
2017-May-19 19:01N 42°43' E 010°38'4 8.2
2017-May-19 18:31N 42°46' E 010°34'10 7.9
2017-May-19 17:14N 42°54' E 010°26'2 7.4
2017-May-19 16:54N 42°54' E 010°22'4 8.2
2017-May-19 16:28N 42°51' E 010°21'2 0.5
2017-May-19 12:03N 42°49' E 010°20'0 0.0
2017-May-19 12:00N 42°49' E 010°20'0 0.0
2017-May-19 05:45N 42°49' E 010°20'0 1.1
2017-May-19 05:29N 42°49' E 010°20'4 7.4
2017-May-19 05:00N 42°52' E 010°21'611.4
2017-May-19 04:30N 42°56' E 010°16'612.3
2017-May-19 04:00N 43°01' E 010°10'612.7
2017-May-19 03:30N 43°06' E 010°05'612.6
2017-May-19 03:00N 43°11' E 009°59'612.7
2017-May-19 02:30N 43°16' E 009°53'612.5
2017-May-19 02:00N 43°20' E 009°48'4 8.2
2017-May-19 01:30N 43°24' E 009°45'510.3
2017-May-19 01:00N 43°29' E 009°43'510.4
2017-May-19 00:30N 43°34' E 009°40'510.7
2017-May-19 00:00N 43°39' E 009°38'510.9
2017-May-18 23:30N 43°44' E 009°35'510.8
2017-May-18 23:00N 43°49' E 009°32'510.7
2017-May-18 22:30N 43°54' E 009°30'611.1
2017-May-18 22:00N 43°59' E 009°27'611.1
2017-May-18 21:30N 44°04' E 009°23'611.2
2017-May-18 21:00N 44°09' E 009°20'611.3
2017-May-18 20:30N 44°14' E 009°17'5 9.9
2017-May-18 20:00N 44°18' E 009°14'0 0.6
2017-May-18 19:26N 44°19' E 009°14'0 0.0
2017-May-18 18:59N 44°19' E 009°14'0 0.1
2017-May-18 18:29N 44°19' E 009°14'0 0.1
2017-May-18 17:56N 44°19' E 009°14'0 0.0
2017-May-18 17:29N 44°19' E 009°14'0 0.0
2017-May-18 16:53N 44°19' E 009°14'0 0.0
2017-May-18 16:29N 44°19' E 009°14'0 0.0
2017-May-18 15:59N 44°19' E 009°14'0 0.0
2017-May-18 15:23N 44°19' E 009°14'0 0.0
2017-May-18 14:56N 44°19' E 009°14'0 0.0
2017-May-18 13:59N 44°19' E 009°14'0 0.0
2017-May-18 13:05N 44°19' E 009°14'0 0.0
2017-May-18 12:50N 44°19' E 009°14'0 0.1
2017-May-18 12:26N 44°19' E 009°14'0 0.0
2017-May-18 11:53N 44°19' E 009°14'0 0.1
2017-May-18 11:20N 44°19' E 009°14'0 0.1
2017-May-18 10:59N 44°19' E 009°14'0 0.0
2017-May-18 10:17N 44°19' E 009°14'0 0.1
2017-May-18 09:59N 44°19' E 009°14'0 0.0
2017-May-18 09:29N 44°19' E 009°14'0 0.0
2017-May-18 08:59N 44°19' E 009°14'0 0.0
2017-May-18 08:14N 44°19' E 009°14'0 0.0
2017-May-18 07:59N 44°19' E 009°14'0 0.0
2017-May-18 07:20N 44°19' E 009°14'0 0.1
2017-May-18 06:43N 44°19' E 009°14'0 0.2
2017-May-18 06:30N 44°19' E 009°14'3 5.6
2017-May-18 05:58N 44°17' E 009°17'3 6.4
2017-May-18 05:30N 44°14' E 009°16'5 9.4
2017-May-18 05:00N 44°12' E 009°10'510.1
2017-May-18 04:30N 44°09' E 009°04'611.9
2017-May-18 04:00N 44°07' E 008°57'611.5
2017-May-18 03:30N 44°05' E 008°49'510.5
2017-May-18 03:00N 44°03' E 008°43'4 8.7
2017-May-18 02:30N 44°01' E 008°37'4 7.8
2017-May-18 02:00N 43°59' E 008°32'3 6.2
2017-May-18 01:29N 43°58' E 008°28'4 7.6
2017-May-18 01:00N 43°56' E 008°24'4 7.3
2017-May-18 00:29N 43°54' E 008°19'3 7.1
2017-May-18 00:00N 43°53' E 008°14'4 7.1
2017-May-17 23:30N 43°51' E 008°10'4 7.5
2017-May-17 23:00N 43°50' E 008°05'  

Dump ship's entire track history